Time;durP1;ratioP1;P1;durP2;ratioP2;P2;SDS_P1;SDS_P2;PMS_P1;PMS_P2;Temp;Humidity;BMP_temperature;BMP_pressure;BME280_temperature;BME280_humidity;BME280_pressure;Samples;Min_cycle;Max_cycle;Signal;HPM_P1;HPM_P2
2023/12/28 00:01:02;;;;;;;8.55;4.10;;;;;;;23.77;44.16;100802.16;2090724;28;20069;-86
2023/12/28 00:02:05;;;;;;;10.40;3.67;;;;;;;23.77;44.21;100802.16;2098221;28;20123;-84
2023/12/28 00:03:08;;;;;;;7.63;3.58;;;;;;;23.77;44.34;100796.66;2089951;28;20808;-84
2023/12/28 00:04:09;;;;;;;10.50;3.80;;;;;;;23.76;44.21;100803.28;2089197;28;20028;-82
2023/12/28 00:05:11;;;;;;;10.18;3.70;;;;;;;23.76;44.12;100784.06;2088784;28;20353;-83
2023/12/28 00:06:15;;;;;;;7.32;3.47;;;;;;;23.76;44.07;100788.75;2081988;28;20156;-84
2023/12/28 00:07:17;;;;;;;10.00;3.53;;;;;;;23.75;44.17;100801.69;2098617;28;20037;-82
2023/12/28 00:08:19;;;;;;;9.35;3.50;;;;;;;23.76;44.12;100788.75;2089200;28;20056;-84
2023/12/28 00:09:23;;;;;;;6.35;3.30;;;;;;;23.75;44.14;100787.97;2074311;28;20789;-85
2023/12/28 00:10:29;;;;;;;8.07;3.42;;;;;;;23.75;44.23;100782.47;2082615;28;20700;-83
2023/12/28 00:11:32;;;;;;;7.80;3.33;;;;;;;23.75;44.19;100784.44;2089504;28;20094;-82
2023/12/28 00:12:36;;;;;;;6.38;3.08;;;;;;;23.74;44.00;100785.56;2081795;28;20041;-81
2023/12/28 00:13:41;;;;;;;8.88;3.22;;;;;;;23.74;44.13;100780.09;2090246;28;20060;-81
2023/12/28 00:14:42;;;;;;;6.75;3.00;;;;;;;23.74;43.99;100775.41;2078080;28;20038;-85
2023/12/28 00:15:44;;;;;;;6.45;3.28;;;;;;;23.73;44.05;100778.50;2082125;28;20136;-85
2023/12/28 00:16:46;;;;;;;7.22;3.17;;;;;;;23.73;43.97;100756.53;2085379;28;20045;-85
2023/12/28 00:17:48;;;;;;;6.97;3.20;;;;;;;23.72;43.94;100761.25;2098304;28;20860;-85
2023/12/28 00:18:50;;;;;;;7.53;3.08;;;;;;;23.72;44.14;100764.00;2092770;28;20079;-83
2023/12/28 00:19:52;;;;;;;8.00;3.50;;;;;;;23.72;43.94;100765.94;2090468;28;20139;-82
2023/12/28 00:20:55;;;;;;;6.72;3.05;;;;;;;23.72;44.02;100769.47;2090434;28;20969;-81
2023/12/28 00:21:58;;;;;;;7.05;2.97;;;;;;;23.71;44.00;100769.84;2089559;28;20168;-83
2023/12/28 00:23:02;;;;;;;7.82;3.13;;;;;;;23.70;43.96;100769.03;2090127;28;20147;-81
2023/12/28 00:24:05;;;;;;;7.85;3.33;;;;;;;23.71;44.06;100780.84;2092584;28;20036;-81
2023/12/28 00:25:11;;;;;;;7.90;3.70;;;;;;;23.71;43.95;100787.13;2081845;28;20030;-82
2023/12/28 00:26:13;;;;;;;5.60;3.00;;;;;;;23.70;43.93;100780.03;2082207;28;20026;-82
2023/12/28 00:27:16;;;;;;;7.88;2.92;;;;;;;23.70;43.76;100780.03;2073701;28;20048;-83
2023/12/28 00:28:18;;;;;;;6.03;2.97;;;;;;;23.68;43.80;100773.28;2065945;28;20042;-83
2023/12/28 00:29:23;;;;;;;7.30;3.20;;;;;;;23.68;43.70;100771.34;2070341;28;20738;-80
2023/12/28 00:30:25;;;;;;;7.63;2.97;;;;;;;23.67;43.61;100758.75;2075121;28;20813;-82
2023/12/28 00:31:27;;;;;;;7.22;2.97;;;;;;;23.67;43.64;100753.25;2084544;28;21002;-82
2023/12/28 00:32:32;;;;;;;6.40;2.92;;;;;;;23.67;43.59;100752.47;2072489;28;20035;-83
2023/12/28 00:33:33;;;;;;;7.88;3.15;;;;;;;23.65;43.46;100741.88;2066133;28;20042;-82
2023/12/28 00:34:37;;;;;;;6.03;2.88;;;;;;;23.65;43.36;100741.88;2090135;28;20029;-82
2023/12/28 00:35:41;;;;;;;6.22;3.13;;;;;;;23.63;43.36;100740.63;2089587;28;20163;-83
2023/12/28 00:36:42;;;;;;;11.65;3.88;;;;;;;23.63;43.35;100744.16;2082011;28;20164;-81
2023/12/28 00:37:45;;;;;;;6.30;3.28;;;;;;;23.63;43.27;100740.63;2089891;28;20101;-85
2023/12/28 00:38:47;;;;;;;6.80;3.10;;;;;;;23.62;43.14;100739.84;2098284;28;20082;-85
2023/12/28 00:39:50;;;;;;;6.57;2.70;;;;;;;23.61;43.26;100743.72;2098311;28;20135;-85
2023/12/28 00:40:52;;;;;;;5.07;2.47;;;;;;;23.62;43.13;100739.84;2090566;28;20711;-84
2023/12/28 00:41:54;;;;;;;5.68;2.88;;;;;;;23.61;43.03;100743.72;2073351;28;20104;-84
2023/12/28 00:42:58;;;;;;;6.45;2.85;;;;;;;23.61;43.06;100738.25;2075037;28;20034;-84
2023/12/28 00:44:02;;;;;;;6.70;2.90;;;;;;;23.60;43.11;100742.94;2090569;28;20077;-84
2023/12/28 00:45:04;;;;;;;6.05;2.72;;;;;;;23.60;43.05;100742.16;2081984;28;20044;-84
2023/12/28 00:46:06;;;;;;;6.25;2.88;;;;;;;23.60;42.96;100753.13;2089813;28;20137;-86
2023/12/28 00:47:08;;;;;;;7.30;3.28;;;;;;;23.59;42.83;100757.81;2097598;28;20029;-85
2023/12/28 00:48:10;;;;;;;7.47;3.25;;;;;;;23.61;43.00;100757.44;2089725;28;20034;-85
2023/12/28 00:49:13;;;;;;;5.65;3.20;;;;;;;23.59;42.90;100751.56;2081415;28;20852;-85
2023/12/28 00:50:16;;;;;;;6.18;3.35;;;;;;;23.59;42.98;100751.56;2089675;28;20147;-85
2023/12/28 00:51:18;;;;;;;7.07;3.00;;;;;;;23.59;42.92;100748.81;2089941;28;20038;-85
2023/12/28 00:52:20;;;;;;;6.93;3.03;;;;;;;23.59;42.83;100735.88;2081418;28;20038;-86
2023/12/28 00:53:24;;;;;;;5.85;2.85;;;;;;;23.58;43.12;100747.19;2081434;28;20780;-84
2023/12/28 00:54:26;;;;;;;7.55;3.10;;;;;;;23.58;42.89;100737.03;2073968;28;20881;-85
2023/12/28 00:55:27;;;;;;;6.38;2.60;;;;;;;23.58;42.87;100744.44;2081870;28;20141;-85
2023/12/28 00:56:32;;;;;;;6.78;3.10;;;;;;;23.56;42.90;100746.78;2089425;28;20110;-84
2023/12/28 00:57:33;;;;;;;7.13;2.80;;;;;;;23.58;42.78;100742.53;2073492;28;20785;-83
2023/12/28 00:58:38;;;;;;;6.65;2.92;;;;;;;23.58;42.98;100744.44;2081441;28;20077;-86
2023/12/28 00:59:41;;;;;;;6.82;2.90;;;;;;;23.58;42.96;100733.47;2079666;28;20042;-84
2023/12/28 01:00:43;;;;;;;7.47;2.80;;;;;;;23.58;42.92;100727.97;2072916;28;20042;-87
2023/12/28 01:01:50;;;;;;;5.80;2.83;;;;;;;23.57;42.85;100721.72;2074835;28;20703;-86
2023/12/28 01:02:52;;;;;;;5.05;2.70;;;;;;;23.56;42.86;100725.63;2097633;28;20097;-82
2023/12/28 01:03:53;;;;;;;6.22;2.63;;;;;;;23.56;43.06;100720.13;2089363;28;20041;-84
2023/12/28 01:04:56;;;;;;;5.13;2.58;;;;;;;23.56;42.99;100717.38;2081589;28;20030;-85
2023/12/28 01:05:58;;;;;;;6.70;2.70;;;;;;;23.56;42.98;100725.63;2082303;28;20038;-85
2023/12/28 01:07:02;;;;;;;5.70;2.85;;;;;;;23.56;42.95;100722.09;2081632;28;20049;-86
2023/12/28 01:08:04;;;;;;;5.57;2.88;;;;;;;23.56;42.98;100724.81;2073855;28;20039;-86
2023/12/28 01:09:06;;;;;;;5.82;2.70;;;;;;;23.57;42.99;100726.41;2073435;28;20857;-84
2023/12/28 01:10:08;;;;;;;7.90;3.05;;;;;;;23.56;42.98;100719.34;2065606;28;20158;-83
2023/12/28 01:11:15;;;;;;;7.22;2.53;;;;;;;23.54;43.09;100707.91;2066716;28;20046;-82
2023/12/28 01:12:17;;;;;;;5.97;2.63;;;;;;;23.54;43.12;100705.97;2090572;28;20155;-79
2023/12/28 01:13:19;;;;;;;5.68;2.58;;;;;;;23.54;43.02;100714.19;2081417;28;20144;-80
2023/12/28 01:14:22;;;;;;;5.50;2.60;;;;;;;23.54;43.04;100714.19;2066044;28;20124;-80
2023/12/28 01:15:25;;;;;;;7.35;2.90;;;;;;;23.54;43.19;100714.19;2082129;28;20038;-83
2023/12/28 01:16:27;;;;;;;7.50;2.55;;;;;;;23.54;43.24;100710.66;2089859;28;20041;-82
2023/12/28 01:17:32;;;;;;;4.80;2.45;;;;;;;23.54;43.05;100716.16;2096937;28;20029;-81
2023/12/28 01:18:37;;;;;;;5.43;2.75;;;;;;;23.53;43.13;100715.38;2089819;28;20921;-82
2023/12/28 01:19:39;;;;;;;5.00;2.78;;;;;;;23.54;43.23;100713.41;2082170;28;20120;-81
2023/12/28 01:20:41;;;;;;;5.90;2.30;;;;;;;23.53;43.12;100720.06;2073777;28;20046;-82
2023/12/28 01:21:45;;;;;;;5.75;2.78;;;;;;;23.53;43.21;100711.81;2081589;28;20045;-82
2023/12/28 01:22:50;;;;;;;5.30;2.50;;;;;;;23.52;43.20;100702.00;2090590;28;20096;-82
2023/12/28 01:23:51;;;;;;;5.28;2.33;;;;;;;23.53;43.19;100698.09;2081661;28;20745;-83
2023/12/28 01:24:52;;;;;;;4.68;2.40;;;;;;;23.51;43.32;100703.16;2081763;28;20116;-86
2023/12/28 01:25:56;;;;;;;5.82;2.58;;;;;;;23.49;43.22;100700.00;2081410;28;20034;-81
2023/12/28 01:26:58;;;;;;;4.70;2.53;;;;;;;23.51;43.28;100694.91;2074084;28;20116;-82
2023/12/28 01:27:59;;;;;;;6.78;2.58;;;;;;;23.51;43.41;100700.41;2065369;28;20853;-82
2023/12/28 01:29:03;;;;;;;6.50;2.67;;;;;;;23.51;43.29;100695.72;2057873;28;20047;-82
2023/12/28 01:30:05;;;;;;;7.45;2.72;;;;;;;23.49;42.82;100691.75;2065320;28;20043;-81
2023/12/28 01:31:07;;;;;;;6.47;3.45;;;;;;;23.45;42.51;100679.91;2073881;28;21219;-82
2023/12/28 01:32:14;;;;;;;7.78;3.22;;;;;;;23.40;42.25;100675.53;2081938;28;20030;-83
2023/12/28 01:33:21;;;;;;;7.95;3.38;;;;;;;23.34;41.71;100675.00;2091182;28;20127;-82
2023/12/28 01:34:23;;;;;;;8.77;3.63;;;;;;;23.28;41.29;100670.19;2107117;28;20992;-82
2023/12/28 01:35:25;;;;;;;10.30;4.03;;;;;;;23.20;40.97;100663.75;2107842;28;20035;-82
2023/12/28 01:36:26;;;;;;;6.55;3.20;;;;;;;23.13;40.80;100663.59;2099364;28;20783;-80
2023/12/28 01:37:31;;;;;;;11.38;3.50;;;;;;;23.06;40.65;100666.22;2091045;28;20042;-80
2023/12/28 01:38:33;;;;;;;10.70;3.90;;;;;;;22.96;40.48;100653.09;2075461;28;20065;-81
2023/12/28 01:39:39;;;;;;;9.70;3.53;;;;;;;22.91;40.41;100645.91;2082861;28;20070;-81
2023/12/28 01:40:44;;;;;;;8.63;3.63;;;;;;;22.81;40.28;100647.25;2084235;28;20030;-86
2023/12/28 01:41:48;;;;;;;9.02;3.60;;;;;;;22.76;40.00;100652.22;2083413;28;20116;-82
2023/12/28 01:42:50;;;;;;;8.02;3.70;;;;;;;22.68;39.81;100637.59;2083392;28;20030;-83
2023/12/28 01:43:52;;;;;;;7.53;3.30;;;;;;;22.62;39.54;100639.00;2091104;28;20733;-85
2023/12/28 01:44:54;;;;;;;7.40;3.65;;;;;;;22.54;39.47;100631.78;2082874;28;20038;-86
2023/12/28 01:45:56;;;;;;;8.45;4.18;;;;;;;22.49;39.51;100626.59;2083288;28;20069;-83
2023/12/28 01:46:59;;;;;;;8.27;3.97;;;;;;;22.43;39.10;100637.81;2083070;28;20788;-82
2023/12/28 01:48:01;;;;;;;9.27;3.80;;;;;;;22.37;39.38;100633.75;2083414;28;20034;-81
2023/12/28 01:49:05;;;;;;;7.65;3.42;;;;;;;22.32;39.28;100630.50;2098874;28;20103;-78
2023/12/28 01:50:07;;;;;;;8.88;3.80;;;;;;;22.26;39.23;100618.22;2099691;28;20037;-82
2023/12/28 01:51:09;;;;;;;8.93;3.92;;;;;;;22.20;39.22;100618.50;2082674;28;20045;-85
2023/12/28 01:52:12;;;;;;;12.38;4.10;;;;;;;22.14;39.07;100608.94;2083373;28;20845;-86
2023/12/28 01:53:14;;;;;;;8.93;3.80;;;;;;;22.10;39.14;100607.25;2073610;28;20039;-80
2023/12/28 01:54:16;;;;;;;11.85;4.63;;;;;;;22.04;39.17;100620.44;2067068;28;20118;-80
2023/12/28 01:55:18;;;;;;;10.93;3.92;;;;;;;21.98;39.08;100600.75;2082955;28;20034;-83
2023/12/28 01:56:21;;;;;;;7.40;3.40;;;;;;;21.98;39.05;100610.91;2074845;28;21251;-80
2023/12/28 01:57:25;;;;;;;10.50;4.00;;;;;;;21.94;38.99;100599.88;2083384;28;20026;-81
2023/12/28 01:58:29;;;;;;;10.48;4.30;;;;;;;21.90;39.06;100601.72;2099713;28;20041;-81
2023/12/28 01:59:31;;;;;;;7.85;3.65;;;;;;;21.87;38.87;100594.22;2090471;28;20835;-81
2023/12/28 02:00:34;;;;;;;9.65;3.67;;;;;;;21.84;38.90;100594.13;2074691;28;20034;-81
2023/12/28 02:01:39;;;;;;;9.35;3.90;;;;;;;21.79;39.00;100597.94;2083324;28;20038;-81
2023/12/28 02:02:42;;;;;;;7.50;4.10;;;;;;;21.78;38.81;100599.06;2083025;28;20071;-80
2023/12/28 02:03:45;;;;;;;10.00;4.15;;;;;;;21.75;38.86;100589.66;2082789;28;20891;-80
2023/12/28 02:04:46;;;;;;;11.18;4.10;;;;;;;21.70;38.88;100595.38;2082453;28;20152;-79
2023/12/28 02:05:48;;;;;;;10.27;3.78;;;;;;;21.67;38.88;100590.59;2082588;28;20030;-79
2023/12/28 02:06:50;;;;;;;8.82;4.28;;;;;;;21.64;38.88;100596.78;2082490;28;20074;-79
2023/12/28 02:07:51;;;;;;;10.00;4.70;;;;;;;21.65;38.83;100597.56;2074241;28;20042;-79
2023/12/28 02:08:53;;;;;;;11.40;4.38;;;;;;;21.63;38.66;100588.94;2087738;28;20041;-80
2023/12/28 02:09:57;;;;;;;8.05;4.10;;;;;;;21.60;38.67;100581.44;2090349;28;20033;-81
2023/12/28 02:11:00;;;;;;;7.38;4.00;;;;;;;21.58;38.56;100578.25;2090771;28;20155;-79
2023/12/28 02:12:02;;;;;;;9.18;4.50;;;;;;;21.52;38.61;100573.03;2082034;28;20869;-80
2023/12/28 02:13:05;;;;;;;8.52;4.13;;;;;;;21.50;38.47;100564.41;2074421;28;20901;-85
2023/12/28 02:14:11;;;;;;;9.95;4.38;;;;;;;21.47;38.61;100559.63;2074696;28;20030;-82
2023/12/28 02:15:12;;;;;;;8.02;3.90;;;;;;;21.44;38.44;100560.34;2089210;28;20073;-83
2023/12/28 02:16:20;;;;;;;9.23;4.22;;;;;;;21.43;38.53;100558.72;2098443;28;20903;-82
2023/12/28 02:17:37;;;;;;;9.30;4.18;;;;;;;21.39;38.53;100557.84;2091520;28;20037;-81
2023/12/28 02:18:46;;;;;;;8.15;3.88;;;;;;;21.36;38.53;100553.06;2091925;28;20136;-80
2023/12/28 02:19:57;;;;;;;10.05;4.53;;;;;;;21.34;38.45;100549.88;2098575;28;20160;-80
2023/12/28 02:20:58;;;;;;;;;;;;;;;21.32;38.29;100546.69;2091024;28;20025;-80
2023/12/28 02:22:00;;;;;;;8.85;4.30;;;;;;;21.29;38.26;100533.72;2090789;28;19913;-84
2023/12/28 02:23:02;;;;;;;8.93;4.13;;;;;;;21.27;38.31;100533.28;2082534;28;20047;-81
2023/12/28 02:24:04;;;;;;;10.25;4.30;;;;;;;21.24;38.22;100528.50;2091415;28;20033;-87
2023/12/28 02:25:14;;;;;;;10.82;4.38;;;;;;;21.21;38.29;100523.75;2107585;28;20068;-81
2023/12/28 02:26:18;;;;;;;10.38;4.38;;;;;;;21.17;38.21;100520.13;2092199;28;20095;-87
2023/12/28 02:27:22;;;;;;;11.10;5.07;;;;;;;21.14;38.20;100505.22;2076840;28;20034;-83
2023/12/28 02:28:26;;;;;;;9.82;4.40;;;;;;;21.11;38.14;100505.13;2090331;28;20037;-81
2023/12/28 02:29:29;;;;;;;11.63;4.50;;;;;;;21.08;38.19;100511.28;2098716;28;20037;-82
2023/12/28 02:30:31;;;;;;;9.27;4.07;;;;;;;21.06;38.32;100506.97;2080773;28;20034;-85
2023/12/28 02:31:37;;;;;;;9.90;4.13;;;;;;;21.03;38.40;100518.63;2095660;28;20756;-84
2023/12/28 02:33:12;;;;;;;8.70;3.88;;;;;;;21.00;38.17;100519.31;2074719;28;20070;-81
2023/12/28 02:34:23;;;;;;;9.70;4.30;;;;;;;20.95;38.16;100505.91;2079677;28;20151;-80
2023/12/28 02:35:33;;;;;;;8.70;4.03;;;;;;;20.91;38.12;100507.75;2083412;28;20045;-80
2023/12/28 02:36:38;;;;;;;10.27;4.45;;;;;;;20.89;38.17;100501.81;2091535;28;20131;-80
2023/12/28 02:37:41;;;;;;;8.02;3.90;;;;;;;20.87;38.16;100486.91;2084498;28;20033;-81
2023/12/28 02:38:46;;;;;;;10.15;4.45;;;;;;;20.83;38.10;100487.59;2089603;28;20029;-81
2023/12/28 02:39:54;;;;;;;8.73;4.30;;;;;;;20.81;38.04;100478.19;2091702;28;20029;-81
2023/12/28 02:40:58;;;;;;;8.90;4.47;;;;;;;20.80;38.12;100487.53;2090348;28;20868;-83
2023/12/28 02:42:04;;;;;;;8.50;3.90;;;;;;;20.77;38.13;100482.75;2075796;28;20099;-83
2023/12/28 02:43:08;;;;;;;9.10;3.95;;;;;;;20.75;38.10;100490.53;2083563;28;20828;-89
2023/12/28 02:44:10;;;;;;;8.80;4.68;;;;;;;20.73;38.00;100492.81;2083349;28;20030;-84
2023/12/28 02:45:11;;;;;;;7.55;3.63;;;;;;;20.71;38.12;100484.97;2082834;28;20084;-82
2023/12/28 02:46:12;;;;;;;7.75;4.38;;;;;;;20.69;38.10;100487.25;2090838;28;20040;-84
2023/12/28 02:47:14;;;;;;;11.05;3.90;;;;;;;20.69;38.04;100481.00;2082738;28;20040;-83
2023/12/28 02:48:17;;;;;;;9.40;4.60;;;;;;;20.68;38.12;100476.66;2090905;28;20057;-83
2023/12/28 02:49:20;;;;;;;8.38;4.18;;;;;;;20.66;38.23;100474.28;2082142;28;20121;-83
2023/12/28 02:50:25;;;;;;;9.63;4.20;;;;;;;20.65;38.17;100474.59;2084526;28;20796;-84
2023/12/28 02:51:29;;;;;;;12.88;4.40;;;;;;;20.65;38.22;100469.97;2090612;28;20049;-83
2023/12/28 02:52:37;;;;;;;7.72;4.10;;;;;;;20.64;38.23;100468.34;2083548;28;20065;-81
2023/12/28 02:53:38;;;;;;;7.82;4.38;;;;;;;20.63;38.11;100460.53;2091403;28;20041;-82
2023/12/28 02:54:40;;;;;;;8.88;4.25;;;;;;;20.62;38.13;100465.19;2090509;28;20835;-82
2023/12/28 02:55:42;;;;;;;8.68;4.00;;;;;;;20.59;38.13;100466.69;2074513;28;20038;-84
2023/12/28 02:56:46;;;;;;;11.18;4.72;;;;;;;20.58;38.14;100470.53;2091081;28;20112;-87
2023/12/28 02:57:47;;;;;;;9.68;4.47;;;;;;;20.57;38.02;100474.41;2091325;28;20132;-86
2023/12/28 02:58:50;;;;;;;10.55;4.60;;;;;;;20.56;38.13;100472.84;2091160;28;20737;-87
2023/12/28 02:59:51;;;;;;;11.65;4.70;;;;;;;20.54;38.14;100496.97;2090997;28;20038;-84
2023/12/28 03:00:55;;;;;;;9.98;4.65;;;;;;;20.53;38.13;100470.81;2090587;28;20026;-84
2023/12/28 03:01:58;;;;;;;7.93;4.22;;;;;;;20.52;38.08;100471.97;2074706;28;20041;-83
2023/12/28 03:03:01;;;;;;;9.20;4.68;;;;;;;20.48;38.03;100465.56;2075319;28;20034;-86
2023/12/28 03:04:05;;;;;;;10.07;4.65;;;;;;;20.48;38.18;100462.03;2074270;28;20809;-87
2023/12/28 03:05:07;;;;;;;9.43;4.85;;;;;;;20.44;37.97;100456.47;2074873;28;20046;-83
2023/12/28 03:06:12;;;;;;;12.70;4.97;;;;;;;20.43;38.06;100454.06;2083017;28;20112;-84
2023/12/28 03:07:13;;;;;;;10.80;5.05;;;;;;;20.42;38.00;100453.28;2082782;28;20152;-87
2023/12/28 03:08:16;;;;;;;8.40;5.25;;;;;;;20.39;38.00;100445.78;2082719;28;20852;-86
2023/12/28 03:09:18;;;;;;;12.57;5.13;;;;;;;20.38;37.98;100449.66;2074467;28;20145;-87
2023/12/28 03:10:21;;;;;;;12.75;5.30;;;;;;;20.37;37.99;100448.09;2074842;28;20842;-87
2023/12/28 03:11:25;;;;;;;9.98;4.88;;;;;;;20.33;38.03;100442.53;2091917;28;20136;-91
2023/12/28 03:12:30;;;;;;;9.50;4.78;;;;;;;20.32;38.16;100440.91;2098721;28;20072;-85
2023/12/28 03:13:34;;;;;;;11.32;4.82;;;;;;;20.31;38.02;100441.28;2099883;28;20075;-83
2023/12/28 03:14:37;;;;;;;10.55;5.13;;;;;;;20.30;37.91;100426.03;2106445;28;20103;-84
2023/12/28 03:15:42;;;;;;;10.07;4.82;;;;;;;20.29;38.04;100438.09;2090841;28;20773;-91
2023/12/28 03:16:45;;;;;;;13.88;5.55;;;;;;;20.26;38.06;100436.06;2084363;28;20156;-91
2023/12/28 03:17:47;;;;;;;12.80;5.25;;;;;;;20.26;38.05;100431.38;2083382;28;20044;-91
2023/12/28 03:18:50;;;;;;;12.93;5.50;;;;;;;20.24;38.09;100427.41;2082445;28;20153;-87
2023/12/28 03:19:51;;;;;;;11.40;5.35;;;;;;;20.22;38.16;100427.75;2074890;28;20042;-88
2023/12/28 03:20:53;;;;;;;13.00;5.40;;;;;;;20.21;38.08;100430.81;2074530;28;20208;-88
2023/12/28 03:21:55;;;;;;;10.40;5.03;;;;;;;20.19;38.07;100436.66;2091188;28;20064;-87
2023/12/28 03:22:59;;;;;;;10.70;5.25;;;;;;;20.19;38.09;100430.41;2098464;28;20037;-87
2023/12/28 03:24:00;;;;;;;11.52;5.90;;;;;;;20.17;38.09;100429.94;2099288;28;20044;-87
2023/12/28 03:25:06;;;;;;;13.40;5.72;;;;;;;20.17;38.18;100435.41;2082898;28;20855;-85
2023/12/28 03:26:07;;;;;;;13.48;5.25;;;;;;;20.16;38.16;100420.16;2075210;28;20169;-85
2023/12/28 03:27:09;;;;;;;9.65;5.22;;;;;;;20.15;38.11;100430.31;2074180;28;20108;-86
2023/12/28 03:28:15;;;;;;;10.25;5.30;;;;;;;20.14;38.12;100429.50;2075357;28;20082;-86
2023/12/28 03:29:21;;;;;;;12.48;5.53;;;;;;;20.14;38.14;100423.22;2090742;28;20201;-89
2023/12/28 03:30:22;;;;;;;12.38;5.40;;;;;;;20.13;38.12;100425.16;2090758;28;21268;-85
2023/12/28 03:31:24;;;;;;;10.57;5.22;;;;;;;20.12;38.18;100415.41;2090118;28;20084;-86
2023/12/28 03:32:25;;;;;;;9.77;5.57;;;;;;;20.11;38.13;100418.47;2082630;28;20804;-85
2023/12/28 03:33:27;;;;;;;15.27;6.03;;;;;;;20.11;38.12;100419.28;2082789;28;20049;-85
2023/12/28 03:34:30;;;;;;;12.85;5.50;;;;;;;20.11;38.06;100402.09;2099035;28;20037;-85
2023/12/28 03:35:33;;;;;;;12.70;6.00;;;;;;;20.09;38.00;100393.47;2098120;28;20067;-84
2023/12/28 03:36:35;;;;;;;9.30;5.03;;;;;;;20.07;38.04;100391.06;2082587;28;20034;-84
2023/12/28 03:37:36;;;;;;;13.90;7.15;;;;;;;20.06;38.02;100378.56;2082162;28;20060;-84
2023/12/28 03:38:39;;;;;;;13.40;5.40;;;;;;;20.05;38.04;100381.63;2074355;28;20144;-84
2023/12/28 03:39:41;;;;;;;12.10;6.00;;;;;;;20.03;38.06;100383.94;2073921;28;20849;-84
2023/12/28 03:40:46;;;;;;;11.55;5.95;;;;;;;20.02;38.10;100374.16;2090905;28;20025;-84
2023/12/28 03:41:48;;;;;;;10.95;6.22;;;;;;;20.00;38.06;100363.59;2082017;28;20046;-84
2023/12/28 03:42:50;;;;;;;10.32;6.05;;;;;;;19.99;38.00;100355.75;2082276;28;20076;-84
2023/12/28 03:43:51;;;;;;;15.75;6.25;;;;;;;19.99;38.03;100345.63;2090819;28;20147;-86
2023/12/28 03:44:55;;;;;;;11.35;5.63;;;;;;;19.98;38.06;100354.94;2082453;28;20076;-88
2023/12/28 03:45:57;;;;;;;10.95;6.05;;;;;;;19.98;38.13;100348.69;2083035;28;20862;-82
2023/12/28 03:47:03;;;;;;;10.52;6.25;;;;;;;19.97;38.06;100342.44;2097719;28;20032;-80
2023/12/28 03:48:06;;;;;;;12.70;5.70;;;;;;;19.97;38.15;100342.44;2090873;28;20160;-83
2023/12/28 03:49:10;;;;;;;11.45;5.72;;;;;;;19.97;38.19;100341.66;2081481;28;20054;-83
2023/12/28 03:50:12;;;;;;;12.13;6.00;;;;;;;19.97;38.18;100342.44;2082781;28;20062;-82
2023/12/28 03:51:17;;;;;;;12.15;5.90;;;;;;;19.96;38.05;100327.22;2090616;28;20903;-82
2023/12/28 03:52:19;;;;;;;12.13;5.78;;;;;;;19.91;38.12;100305.63;2090695;28;20035;-83
2023/12/28 03:53:23;;;;;;;12.75;5.78;;;;;;;19.95;38.14;100311.97;2074039;28;20076;-82
2023/12/28 03:54:25;;;;;;;11.05;5.50;;;;;;;19.95;38.01;100306.53;2082913;28;20030;-83
2023/12/28 03:55:27;;;;;;;11.27;6.10;;;;;;;19.94;38.08;100304.94;2090471;28;20029;-83
2023/12/28 03:56:30;;;;;;;12.82;5.28;;;;;;;19.94;38.18;100288.56;2096737;28;20143;-87
2023/12/28 03:57:31;;;;;;;15.45;6.72;;;;;;;19.93;38.11;100297.91;2090334;28;20931;-85
2023/12/28 03:58:33;;;;;;;12.45;5.68;;;;;;;19.92;38.10;100279.94;2073506;28;20030;-82
2023/12/28 03:59:40;;;;;;;14.85;6.32;;;;;;;19.92;38.13;100274.47;2066583;28;20047;-81
2023/12/28 04:00:41;;;;;;;14.23;6.93;;;;;;;19.90;38.18;100282.22;2082048;28;20116;-82
2023/12/28 04:01:46;;;;;;;11.55;6.30;;;;;;;19.89;38.10;100286.06;2090582;28;20035;-84
2023/12/28 04:02:48;;;;;;;11.50;5.75;;;;;;;19.90;38.04;100268.59;2097942;28;20991;-85
2023/12/28 04:03:51;;;;;;;15.30;6.63;;;;;;;19.87;38.08;100266.56;2081921;28;20729;-84
2023/12/28 04:04:52;;;;;;;13.50;6.22;;;;;;;19.87;38.12;100261.88;2074351;28;20157;-85
2023/12/28 04:05:54;;;;;;;10.68;5.80;;;;;;;19.85;38.12;100269.63;2082127;28;20034;-84
2023/12/28 04:07:10;;;;;;;13.15;6.05;;;;;;;19.78;38.16;100260.44;2090204;28;20036;-81
2023/12/28 04:08:11;;;;;;;14.55;6.35;;;;;;;19.83;38.07;100265.63;2090604;28;20829;-81
2023/12/28 04:09:13;;;;;;;14.88;6.03;;;;;;;19.82;38.18;100259.41;2090195;28;20839;-84
2023/12/28 04:10:28;;;;;;;16.80;7.85;;;;;;;19.82;38.03;100269.53;2090304;28;20033;-85
2023/12/28 04:11:30;;;;;;;12.10;6.30;;;;;;;19.79;38.03;100253.84;2090332;28;21324;-86
2023/12/28 04:12:33;;;;;;;11.68;6.28;;;;;;;19.79;37.91;100248.38;2074067;28;20038;-84
2023/12/28 04:13:36;;;;;;;12.45;6.38;;;;;;;19.79;38.09;100242.94;2074600;28;20085;-83
2023/12/28 04:14:40;;;;;;;14.10;7.00;;;;;;;19.78;38.08;100236.69;2082176;28;20088;-83
2023/12/28 04:15:45;;;;;;;13.90;6.65;;;;;;;19.76;38.12;100255.31;2082481;28;20068;-83
2023/12/28 04:16:47;;;;;;;14.25;6.82;;;;;;;19.77;37.98;100234.31;2083342;28;20871;-83
2023/12/28 04:17:49;;;;;;;13.20;6.63;;;;;;;19.75;38.04;100231.94;2082281;28;20030;-90
2023/12/28 04:18:51;;;;;;;14.75;6.75;;;;;;;19.75;38.02;100236.59;2065924;28;20089;-88
2023/12/28 04:19:53;;;;;;;14.50;7.25;;;;;;;19.73;37.96;100228.75;2074115;28;20053;-86
2023/12/28 04:20:54;;;;;;;12.80;6.32;;;;;;;19.72;38.14;100215.47;2081911;28;20061;-84
2023/12/28 04:21:56;;;;;;;10.57;6.05;;;;;;;19.71;38.08;100217.41;2073853;28;20836;-86
2023/12/28 04:23:03;;;;;;;12.00;6.63;;;;;;;19.71;38.11;100224.81;2082269;28;20116;-86
2023/12/28 04:24:08;;;;;;;14.80;6.70;;;;;;;19.71;38.10;100219.34;2083510;28;20041;-86
2023/12/28 04:25:12;;;;;;;12.38;6.60;;;;;;;19.70;38.11;100212.28;2081718;28;20140;-84
2023/12/28 04:26:20;;;;;;;14.40;6.82;;;;;;;19.68;38.01;100205.25;2074275;28;20094;-85
2023/12/28 04:27:24;;;;;;;12.63;6.30;;;;;;;19.67;38.01;100184.59;2074749;28;20042;-85
2023/12/28 04:28:28;;;;;;;15.20;7.10;;;;;;;19.66;38.05;100179.47;2074652;28;21040;-87
2023/12/28 04:29:33;;;;;;;11.15;6.53;;;;;;;19.67;37.96;100186.50;2082221;28;20857;-86
2023/12/28 04:30:37;;;;;;;13.55;6.80;;;;;;;19.66;37.87;100179.47;2074335;28;20027;-89
2023/12/28 04:31:41;;;;;;;12.65;6.80;;;;;;;19.65;38.02;100186.06;2066924;28;20038;-88
2023/12/28 04:32:43;;;;;;;12.02;6.55;;;;;;;19.64;37.98;100173.56;2074417;28;20034;-88
2023/12/28 04:33:44;;;;;;;15.77;6.88;;;;;;;19.64;37.96;100176.28;2073634;28;20117;-88
2023/12/28 04:34:46;;;;;;;13.02;6.68;;;;;;;19.62;37.91;100157.53;2082389;28;20051;-86
2023/12/28 04:35:49;;;;;;;12.82;6.90;;;;;;;19.60;37.90;100170.72;2090249;28;21242;-86
2023/12/28 04:36:52;;;;;;;13.65;6.70;;;;;;;19.59;38.00;100174.59;2074061;28;20037;-88
2023/12/28 04:37:53;;;;;;;14.60;6.45;;;;;;;19.58;37.91;100167.56;2065965;28;20979;-84
2023/12/28 04:38:55;;;;;;;14.57;6.97;;;;;;;19.57;38.05;100173.34;2057869;28;20039;-84
2023/12/28 04:40:17;;;;;;;12.98;6.50;;;;;;;19.55;37.82;100173.72;2066274;28;20122;-82
2023/12/28 04:41:18;;;;;;;11.07;6.72;;;;;;;19.53;37.85;100159.63;2083902;28;20033;-86
2023/12/28 04:42:20;;;;;;;12.73;6.78;;;;;;;19.53;38.07;100162.34;2065584;28;20703;-85
2023/12/28 04:43:23;;;;;;;16.05;7.60;;;;;;;19.52;37.87;100152.59;2074390;28;20081;-87
2023/12/28 04:44:26;;;;;;;11.50;6.22;;;;;;;19.51;37.81;100147.47;2090041;28;20034;-87
2023/12/28 04:45:27;;;;;;;16.85;7.13;;;;;;;19.48;37.80;100146.22;2082798;28;20097;-87
2023/12/28 04:46:32;;;;;;;12.02;6.65;;;;;;;19.47;37.83;100141.91;2082585;28;20038;-90
2023/12/28 04:47:37;;;;;;;14.63;6.82;;;;;;;19.46;37.89;100140.34;2083165;28;20857;-87
2023/12/28 04:48:42;;;;;;;11.75;7.00;;;;;;;19.45;37.87;100136.00;2074125;28;20042;-84
2023/12/28 04:49:43;;;;;;;14.85;6.68;;;;;;;19.44;37.82;100137.16;2066468;28;20978;-85
2023/12/28 04:50:48;;;;;;;14.65;6.95;;;;;;;19.44;37.94;100123.53;2081827;28;20030;-84
2023/12/28 04:51:49;;;;;;;12.57;6.82;;;;;;;19.43;38.01;100132.88;2073978;28;20846;-83
2023/12/28 04:52:51;;;;;;;14.45;6.88;;;;;;;19.42;38.01;100121.16;2065623;28;20769;-82
2023/12/28 04:53:54;;;;;;;15.73;6.53;;;;;;;19.42;38.00;100120.38;2074424;28;20037;-83